sensor_id;sensor_type;location;lat;lon;timestamp;P1;durP1;ratioP1;P2;durP2;ratioP2
7255;SDS011;3669;49.200;9.242;2023-05-10T00:02:03;2.88;;;1.85;;
7255;SDS011;3669;49.200;9.242;2023-05-10T00:04:31;1.70;;;1.60;;
7255;SDS011;3669;49.200;9.242;2023-05-10T00:06:58;1.60;;;1.50;;
7255;SDS011;3669;49.200;9.242;2023-05-10T00:09:25;1.90;;;1.70;;
7255;SDS011;3669;49.200;9.242;2023-05-10T00:11:52;1.83;;;1.73;;
7255;SDS011;3669;49.200;9.242;2023-05-10T00:14:20;1.73;;;1.63;;
7255;SDS011;3669;49.200;9.242;2023-05-10T00:16:47;1.60;;;1.50;;
7255;SDS011;3669;49.200;9.242;2023-05-10T00:19:14;1.90;;;1.80;;
7255;SDS011;3669;49.200;9.242;2023-05-10T00:21:41;1.63;;;1.52;;
7255;SDS011;3669;49.200;9.242;2023-05-10T00:24:08;1.60;;;1.50;;
7255;SDS011;3669;49.200;9.242;2023-05-10T00:26:35;1.48;;;1.38;;
7255;SDS011;3669;49.200;9.242;2023-05-10T00:29:02;1.40;;;1.30;;
7255;SDS011;3669;49.200;9.242;2023-05-10T00:31:29;3.25;;;1.70;;
7255;SDS011;3669;49.200;9.242;2023-05-10T00:33:56;1.40;;;1.30;;
7255;SDS011;3669;49.200;9.242;2023-05-10T00:36:23;1.38;;;1.27;;
7255;SDS011;3669;49.200;9.242;2023-05-10T00:38:50;1.50;;;1.40;;
7255;SDS011;3669;49.200;9.242;2023-05-10T00:41:17;1.50;;;1.40;;
7255;SDS011;3669;49.200;9.242;2023-05-10T00:43:44;1.65;;;1.40;;
7255;SDS011;3669;49.200;9.242;2023-05-10T00:46:11;1.20;;;1.20;;
7255;SDS011;3669;49.200;9.242;2023-05-10T00:48:39;1.40;;;1.27;;
7255;SDS011;3669;49.200;9.242;2023-05-10T00:51:06;1.60;;;1.50;;
7255;SDS011;3669;49.200;9.242;2023-05-10T00:53:33;1.40;;;1.30;;
7255;SDS011;3669;49.200;9.242;2023-05-10T00:56:00;1.75;;;1.50;;
7255;SDS011;3669;49.200;9.242;2023-05-10T00:58:29;1.40;;;1.30;;
7255;SDS011;3669;49.200;9.242;2023-05-10T01:00:56;1.33;;;1.23;;
7255;SDS011;3669;49.200;9.242;2023-05-10T01:03:24;1.75;;;1.40;;
7255;SDS011;3669;49.200;9.242;2023-05-10T01:05:52;1.60;;;1.50;;
7255;SDS011;3669;49.200;9.242;2023-05-10T01:08:19;1.50;;;1.40;;
7255;SDS011;3669;49.200;9.242;2023-05-10T01:10:46;1.40;;;1.30;;
7255;SDS011;3669;49.200;9.242;2023-05-10T01:13:17;1.38;;;1.27;;
7255;SDS011;3669;49.200;9.242;2023-05-10T01:15:46;1.40;;;1.30;;
7255;SDS011;3669;49.200;9.242;2023-05-10T01:18:13;1.38;;;1.27;;
7255;SDS011;3669;49.200;9.242;2023-05-10T01:20:40;1.40;;;1.30;;
7255;SDS011;3669;49.200;9.242;2023-05-10T01:28:35;20.70;;;19.65;;
7255;SDS011;3669;49.200;9.242;2023-05-10T01:33:46;1.50;;;1.40;;
7255;SDS011;3669;49.200;9.242;2023-05-10T01:36:23;1.77;;;1.67;;
7255;SDS011;3669;49.200;9.242;2023-05-10T01:41:39;1.60;;;1.50;;
7255;SDS011;3669;49.200;9.242;2023-05-10T01:46:38;1.40;;;1.30;;
7255;SDS011;3669;49.200;9.242;2023-05-10T01:49:11;1.55;;;1.45;;
7255;SDS011;3669;49.200;9.242;2023-05-10T01:51:42;1.95;;;1.55;;
7255;SDS011;3669;49.200;9.242;2023-05-10T01:54:12;1.60;;;1.50;;
7255;SDS011;3669;49.200;9.242;2023-05-10T01:56:40;1.70;;;1.60;;
7255;SDS011;3669;49.200;9.242;2023-05-10T01:59:12;1.70;;;1.60;;
7255;SDS011;3669;49.200;9.242;2023-05-10T02:01:40;1.67;;;1.50;;
7255;SDS011;3669;49.200;9.242;2023-05-10T02:04:07;1.60;;;1.50;;
7255;SDS011;3669;49.200;9.242;2023-05-10T02:06:35;1.58;;;1.48;;
7255;SDS011;3669;49.200;9.242;2023-05-10T02:09:03;2.15;;;1.40;;
7255;SDS011;3669;49.200;9.242;2023-05-10T02:11:31;1.65;;;1.55;;
7255;SDS011;3669;49.200;9.242;2023-05-10T02:13:59;1.58;;;1.48;;
7255;SDS011;3669;49.200;9.242;2023-05-10T02:16:27;1.40;;;1.30;;
7255;SDS011;3669;49.200;9.242;2023-05-10T02:18:56;1.63;;;1.52;;
7255;SDS011;3669;49.200;9.242;2023-05-10T02:21:25;2.00;;;1.30;;
7255;SDS011;3669;49.200;9.242;2023-05-10T02:23:53;1.63;;;1.52;;
7255;SDS011;3669;49.200;9.242;2023-05-10T02:26:21;1.50;;;1.40;;
7255;SDS011;3669;49.200;9.242;2023-05-10T02:28:51;1.40;;;1.30;;
7255;SDS011;3669;49.200;9.242;2023-05-10T02:31:18;1.38;;;1.30;;
7255;SDS011;3669;49.200;9.242;2023-05-10T02:33:46;1.73;;;1.40;;
7255;SDS011;3669;49.200;9.242;2023-05-10T02:36:15;1.65;;;1.50;;
7255;SDS011;3669;49.200;9.242;2023-05-10T02:38:43;2.30;;;1.45;;
7255;SDS011;3669;49.200;9.242;2023-05-10T02:41:10;1.50;;;1.40;;
7255;SDS011;3669;49.200;9.242;2023-05-10T02:43:38;1.35;;;1.25;;
7255;SDS011;3669;49.200;9.242;2023-05-10T02:46:06;1.77;;;1.67;;
7255;SDS011;3669;49.200;9.242;2023-05-10T02:48:33;2.00;;;1.65;;
7255;SDS011;3669;49.200;9.242;2023-05-10T02:51:02;2.00;;;1.45;;
7255;SDS011;3669;49.200;9.242;2023-05-10T02:53:31;1.77;;;1.67;;
7255;SDS011;3669;49.200;9.242;2023-05-10T02:56:00;13.50;;;12.90;;
7255;SDS011;3669;49.200;9.242;2023-05-10T02:58:29;15.57;;;14.68;;
7255;SDS011;3669;49.200;9.242;2023-05-10T03:00:56;21.02;;;19.92;;
7255;SDS011;3669;49.200;9.242;2023-05-10T03:03:23;20.70;;;19.75;;
7255;SDS011;3669;49.200;9.242;2023-05-10T03:05:50;30.05;;;28.55;;
7255;SDS011;3669;49.200;9.242;2023-05-10T03:08:19;24.83;;;23.52;;
7255;SDS011;3669;49.200;9.242;2023-05-10T03:10:54;25.38;;;24.27;;
7255;SDS011;3669;49.200;9.242;2023-05-10T03:13:31;26.63;;;25.48;;
7255;SDS011;3669;49.200;9.242;2023-05-10T03:16:12;10.27;;;9.85;;
7255;SDS011;3669;49.200;9.242;2023-05-10T03:18:42;28.85;;;27.52;;
7255;SDS011;3669;49.200;9.242;2023-05-10T03:21:10;3.78;;;3.63;;
7255;SDS011;3669;49.200;9.242;2023-05-10T03:23:43;1.50;;;1.40;;
7255;SDS011;3669;49.200;9.242;2023-05-10T03:26:12;1.60;;;1.50;;
7255;SDS011;3669;49.200;9.242;2023-05-10T03:28:42;1.50;;;1.40;;
7255;SDS011;3669;49.200;9.242;2023-05-10T03:31:10;1.60;;;1.50;;
7255;SDS011;3669;49.200;9.242;2023-05-10T03:33:45;1.63;;;1.52;;
7255;SDS011;3669;49.200;9.242;2023-05-10T03:36:14;1.80;;;1.70;;
7255;SDS011;3669;49.200;9.242;2023-05-10T03:38:41;2.58;;;1.63;;
7255;SDS011;3669;49.200;9.242;2023-05-10T03:41:08;1.40;;;1.40;;
7255;SDS011;3669;49.200;9.242;2023-05-10T03:43:35;1.42;;;1.33;;
7255;SDS011;3669;49.200;9.242;2023-05-10T03:46:03;1.52;;;1.42;;
7255;SDS011;3669;49.200;9.242;2023-05-10T03:48:34;1.70;;;1.60;;
7255;SDS011;3669;49.200;9.242;2023-05-10T03:51:01;3.63;;;1.65;;
7255;SDS011;3669;49.200;9.242;2023-05-10T03:53:28;1.60;;;1.50;;
7255;SDS011;3669;49.200;9.242;2023-05-10T03:55:56;1.50;;;1.40;;
7255;SDS011;3669;49.200;9.242;2023-05-10T03:58:23;1.45;;;1.35;;
7255;SDS011;3669;49.200;9.242;2023-05-10T04:00:50;1.70;;;1.55;;
7255;SDS011;3669;49.200;9.242;2023-05-10T04:03:18;1.70;;;1.60;;
7255;SDS011;3669;49.200;9.242;2023-05-10T04:05:45;1.70;;;1.60;;
7255;SDS011;3669;49.200;9.242;2023-05-10T04:08:13;1.85;;;1.60;;
7255;SDS011;3669;49.200;9.242;2023-05-10T04:10:42;2.13;;;1.92;;
7255;SDS011;3669;49.200;9.242;2023-05-10T04:13:09;1.88;;;1.50;;
7255;SDS011;3669;49.200;9.242;2023-05-10T04:15:36;2.10;;;1.90;;
7255;SDS011;3669;49.200;9.242;2023-05-10T04:18:04;2.42;;;1.83;;
7255;SDS011;3669;49.200;9.242;2023-05-10T04:20:31;2.60;;;1.90;;
7255;SDS011;3669;49.200;9.242;2023-05-10T04:22:59;2.35;;;1.75;;
7255;SDS011;3669;49.200;9.242;2023-05-10T04:25:26;1.85;;;1.75;;
7255;SDS011;3669;49.200;9.242;2023-05-10T04:27:53;2.13;;;1.92;;
7255;SDS011;3669;49.200;9.242;2023-05-10T04:30:20;1.52;;;1.42;;
7255;SDS011;3669;49.200;9.242;2023-05-10T04:32:48;1.92;;;1.83;;
7255;SDS011;3669;49.200;9.242;2023-05-10T04:35:15;2.00;;;1.90;;
7255;SDS011;3669;49.200;9.242;2023-05-10T04:37:42;2.05;;;1.95;;
7255;SDS011;3669;49.200;9.242;2023-05-10T04:40:09;2.15;;;1.85;;
7255;SDS011;3669;49.200;9.242;2023-05-10T04:42:36;1.95;;;1.85;;
7255;SDS011;3669;49.200;9.242;2023-05-10T04:45:03;2.00;;;1.90;;
7255;SDS011;3669;49.200;9.242;2023-05-10T04:47:31;2.22;;;1.98;;
7255;SDS011;3669;49.200;9.242;2023-05-10T04:49:58;3.10;;;2.10;;
7255;SDS011;3669;49.200;9.242;2023-05-10T04:52:25;2.10;;;2.00;;
7255;SDS011;3669;49.200;9.242;2023-05-10T04:54:53;1.98;;;1.88;;
7255;SDS011;3669;49.200;9.242;2023-05-10T04:57:20;2.40;;;2.20;;
7255;SDS011;3669;49.200;9.242;2023-05-10T04:59:47;2.40;;;2.20;;
7255;SDS011;3669;49.200;9.242;2023-05-10T05:02:14;2.20;;;2.10;;
7255;SDS011;3669;49.200;9.242;2023-05-10T05:04:42;2.10;;;2.00;;
7255;SDS011;3669;49.200;9.242;2023-05-10T05:07:09;2.30;;;2.20;;
7255;SDS011;3669;49.200;9.242;2023-05-10T05:09:36;3.10;;;2.90;;
7255;SDS011;3669;49.200;9.242;2023-05-10T05:12:03;12.75;;;12.00;;
7255;SDS011;3669;49.200;9.242;2023-05-10T05:14:30;2.70;;;2.50;;
7255;SDS011;3669;49.200;9.242;2023-05-10T05:16:57;3.20;;;2.35;;
7255;SDS011;3669;49.200;9.242;2023-05-10T05:19:24;2.60;;;2.40;;
7255;SDS011;3669;49.200;9.242;2023-05-10T05:21:51;2.47;;;2.28;;
7255;SDS011;3669;49.200;9.242;2023-05-10T05:24:18;2.95;;;2.75;;
7255;SDS011;3669;49.200;9.242;2023-05-10T05:26:45;12.57;;;11.85;;
7255;SDS011;3669;49.200;9.242;2023-05-10T05:29:12;15.85;;;14.95;;
7255;SDS011;3669;49.200;9.242;2023-05-10T05:31:39;24.52;;;23.38;;
7255;SDS011;3669;49.200;9.242;2023-05-10T05:34:06;23.38;;;22.33;;
7255;SDS011;3669;49.200;9.242;2023-05-10T05:36:36;24.67;;;23.45;;
7255;SDS011;3669;49.200;9.242;2023-05-10T05:39:04;31.70;;;30.15;;
7255;SDS011;3669;49.200;9.242;2023-05-10T05:41:31;21.02;;;19.92;;
7255;SDS011;3669;49.200;9.242;2023-05-10T05:43:58;11.02;;;10.45;;
7255;SDS011;3669;49.200;9.242;2023-05-10T05:46:24;5.22;;;4.88;;
7255;SDS011;3669;49.200;9.242;2023-05-10T05:48:51;3.03;;;2.83;;
7255;SDS011;3669;49.200;9.242;2023-05-10T05:51:18;3.28;;;3.00;;
7255;SDS011;3669;49.200;9.242;2023-05-10T05:53:45;2.90;;;2.70;;
7255;SDS011;3669;49.200;9.242;2023-05-10T05:56:12;3.13;;;2.85;;
7255;SDS011;3669;49.200;9.242;2023-05-10T05:58:39;3.28;;;2.85;;
7255;SDS011;3669;49.200;9.242;2023-05-10T06:01:07;2.88;;;2.67;;
7255;SDS011;3669;49.200;9.242;2023-05-10T06:03:34;3.55;;;3.25;;
7255;SDS011;3669;49.200;9.242;2023-05-10T06:06:01;3.20;;;3.00;;
7255;SDS011;3669;49.200;9.242;2023-05-10T06:08:28;2.90;;;2.70;;
7255;SDS011;3669;49.200;9.242;2023-05-10T06:10:55;3.00;;;2.80;;
7255;SDS011;3669;49.200;9.242;2023-05-10T06:13:22;3.60;;;3.30;;
7255;SDS011;3669;49.200;9.242;2023-05-10T06:15:49;3.13;;;2.83;;
7255;SDS011;3669;49.200;9.242;2023-05-10T06:18:16;3.13;;;2.83;;
7255;SDS011;3669;49.200;9.242;2023-05-10T06:20:43;3.22;;;3.03;;
7255;SDS011;3669;49.200;9.242;2023-05-10T06:23:11;3.10;;;2.90;;
7255;SDS011;3669;49.200;9.242;2023-05-10T06:25:37;2.92;;;2.72;;
7255;SDS011;3669;49.200;9.242;2023-05-10T06:28:05;2.78;;;2.58;;
7255;SDS011;3669;49.200;9.242;2023-05-10T06:30:32;4.32;;;3.25;;
7255;SDS011;3669;49.200;9.242;2023-05-10T06:32:59;3.38;;;3.00;;
7255;SDS011;3669;49.200;9.242;2023-05-10T06:35:26;3.28;;;2.85;;
7255;SDS011;3669;49.200;9.242;2023-05-10T06:37:53;3.45;;;2.67;;
7255;SDS011;3669;49.200;9.242;2023-05-10T06:40:20;3.00;;;2.72;;
7255;SDS011;3669;49.200;9.242;2023-05-10T06:42:47;4.30;;;3.90;;
7255;SDS011;3669;49.200;9.242;2023-05-10T06:45:15;6.13;;;5.63;;
7255;SDS011;3669;49.200;9.242;2023-05-10T06:47:42;6.50;;;6.00;;
7255;SDS011;3669;49.200;9.242;2023-05-10T06:50:09;5.35;;;4.45;;
7255;SDS011;3669;49.200;9.242;2023-05-10T06:52:40;3.67;;;3.17;;
7255;SDS011;3669;49.200;9.242;2023-05-10T06:55:08;3.38;;;2.95;;
7255;SDS011;3669;49.200;9.242;2023-05-10T06:57:35;3.35;;;3.05;;
7255;SDS011;3669;49.200;9.242;2023-05-10T07:00:02;3.55;;;3.22;;
7255;SDS011;3669;49.200;9.242;2023-05-10T07:02:30;3.55;;;3.05;;
7255;SDS011;3669;49.200;9.242;2023-05-10T07:04:57;3.92;;;3.30;;
7255;SDS011;3669;49.200;9.242;2023-05-10T07:07:24;7.70;;;6.97;;
7255;SDS011;3669;49.200;9.242;2023-05-10T07:09:51;11.25;;;10.15;;
7255;SDS011;3669;49.200;9.242;2023-05-10T07:12:18;9.07;;;8.18;;
7255;SDS011;3669;49.200;9.242;2023-05-10T07:14:46;5.82;;;5.00;;
7255;SDS011;3669;49.200;9.242;2023-05-10T07:17:12;15.77;;;14.50;;
7255;SDS011;3669;49.200;9.242;2023-05-10T07:19:40;4.82;;;3.30;;
7255;SDS011;3669;49.200;9.242;2023-05-10T07:22:07;3.83;;;3.30;;
7255;SDS011;3669;49.200;9.242;2023-05-10T07:24:35;3.22;;;2.88;;
7255;SDS011;3669;49.200;9.242;2023-05-10T07:27:02;3.90;;;2.92;;
7255;SDS011;3669;49.200;9.242;2023-05-10T07:29:29;4.43;;;2.72;;
7255;SDS011;3669;49.200;9.242;2023-05-10T07:31:56;13.00;;;12.25;;
7255;SDS011;3669;49.200;9.242;2023-05-10T07:34:23;18.85;;;17.80;;
7255;SDS011;3669;49.200;9.242;2023-05-10T07:36:51;25.30;;;23.90;;
7255;SDS011;3669;49.200;9.242;2023-05-10T07:39:18;23.98;;;22.83;;
7255;SDS011;3669;49.200;9.242;2023-05-10T07:41:46;22.52;;;21.42;;
7255;SDS011;3669;49.200;9.242;2023-05-10T07:44:13;23.10;;;21.83;;
7255;SDS011;3669;49.200;9.242;2023-05-10T07:46:40;12.60;;;11.93;;
7255;SDS011;3669;49.200;9.242;2023-05-10T07:49:07;6.95;;;5.93;;
7255;SDS011;3669;49.200;9.242;2023-05-10T07:51:33;3.90;;;2.95;;
7255;SDS011;3669;49.200;9.242;2023-05-10T07:54:01;2.85;;;2.42;;
7255;SDS011;3669;49.200;9.242;2023-05-10T07:56:29;2.40;;;2.20;;
7255;SDS011;3669;49.200;9.242;2023-05-10T07:59:00;3.15;;;2.30;;
7255;SDS011;3669;49.200;9.242;2023-05-10T08:01:33;4.22;;;2.40;;
7255;SDS011;3669;49.200;9.242;2023-05-10T08:04:01;2.50;;;2.30;;
7255;SDS011;3669;49.200;9.242;2023-05-10T08:06:28;2.55;;;2.03;;
7255;SDS011;3669;49.200;9.242;2023-05-10T08:08:55;2.22;;;2.00;;
7255;SDS011;3669;49.200;9.242;2023-05-10T08:11:22;1.90;;;1.80;;
7255;SDS011;3669;49.200;9.242;2023-05-10T08:13:50;2.50;;;1.90;;
7255;SDS011;3669;49.200;9.242;2023-05-10T08:16:17;2.42;;;2.22;;
7255;SDS011;3669;49.200;9.242;2023-05-10T08:18:45;1.98;;;1.80;;
7255;SDS011;3669;49.200;9.242;2023-05-10T08:21:13;3.97;;;2.00;;
7255;SDS011;3669;49.200;9.242;2023-05-10T08:23:40;2.20;;;2.00;;
7255;SDS011;3669;49.200;9.242;2023-05-10T08:26:09;2.08;;;1.90;;
7255;SDS011;3669;49.200;9.242;2023-05-10T08:28:36;2.45;;;2.10;;
7255;SDS011;3669;49.200;9.242;2023-05-10T08:31:04;1.90;;;1.80;;
7255;SDS011;3669;49.200;9.242;2023-05-10T08:33:31;2.88;;;1.90;;
7255;SDS011;3669;49.200;9.242;2023-05-10T08:35:58;2.97;;;1.98;;
7255;SDS011;3669;49.200;9.242;2023-05-10T08:38:25;2.00;;;1.90;;
7255;SDS011;3669;49.200;9.242;2023-05-10T08:40:53;2.30;;;2.05;;
7255;SDS011;3669;49.200;9.242;2023-05-10T08:43:26;1.85;;;1.73;;
7255;SDS011;3669;49.200;9.242;2023-05-10T08:45:59;2.10;;;1.90;;
7255;SDS011;3669;49.200;9.242;2023-05-10T08:48:29;1.73;;;1.60;;
7255;SDS011;3669;49.200;9.242;2023-05-10T08:50:57;2.03;;;1.92;;
7255;SDS011;3669;49.200;9.242;2023-05-10T08:53:25;3.33;;;1.80;;
7255;SDS011;3669;49.200;9.242;2023-05-10T08:55:53;2.83;;;2.05;;
7255;SDS011;3669;49.200;9.242;2023-05-10T08:58:21;2.00;;;1.88;;
7255;SDS011;3669;49.200;9.242;2023-05-10T09:00:48;3.53;;;1.67;;
7255;SDS011;3669;49.200;9.242;2023-05-10T09:03:19;2.10;;;1.65;;
7255;SDS011;3669;49.200;9.242;2023-05-10T09:05:46;1.80;;;1.70;;
7255;SDS011;3669;49.200;9.242;2023-05-10T09:08:13;2.33;;;1.80;;
7255;SDS011;3669;49.200;9.242;2023-05-10T09:10:42;3.25;;;1.70;;
7255;SDS011;3669;49.200;9.242;2023-05-10T09:13:10;1.73;;;1.63;;
7255;SDS011;3669;49.200;9.242;2023-05-10T09:15:38;2.20;;;2.00;;
7255;SDS011;3669;49.200;9.242;2023-05-10T09:18:05;2.22;;;2.03;;
7255;SDS011;3669;49.200;9.242;2023-05-10T09:20:32;4.43;;;2.42;;
7255;SDS011;3669;49.200;9.242;2023-05-10T09:22:59;3.83;;;2.33;;
7255;SDS011;3669;49.200;9.242;2023-05-10T09:25:26;2.25;;;1.90;;
7255;SDS011;3669;49.200;9.242;2023-05-10T09:27:54;2.45;;;2.00;;
7255;SDS011;3669;49.200;9.242;2023-05-10T09:30:27;1.90;;;1.70;;
7255;SDS011;3669;49.200;9.242;2023-05-10T09:32:55;2.40;;;2.20;;
7255;SDS011;3669;49.200;9.242;2023-05-10T09:35:23;2.22;;;2.03;;
7255;SDS011;3669;49.200;9.242;2023-05-10T09:37:51;2.10;;;1.90;;
7255;SDS011;3669;49.200;9.242;2023-05-10T09:40:20;1.92;;;1.80;;
7255;SDS011;3669;49.200;9.242;2023-05-10T09:43:06;2.40;;;2.20;;
7255;SDS011;3669;49.200;9.242;2023-05-10T09:45:35;1.60;;;1.50;;
7255;SDS011;3669;49.200;9.242;2023-05-10T09:48:02;3.50;;;1.70;;
7255;SDS011;3669;49.200;9.242;2023-05-10T09:50:29;1.67;;;1.58;;
7255;SDS011;3669;49.200;9.242;2023-05-10T09:52:57;16.13;;;15.38;;
7255;SDS011;3669;49.200;9.242;2023-05-10T09:55:37;15.15;;;14.32;;
7255;SDS011;3669;49.200;9.242;2023-05-10T09:58:06;22.17;;;21.17;;
7255;SDS011;3669;49.200;9.242;2023-05-10T10:00:43;30.60;;;29.15;;
7255;SDS011;3669;49.200;9.242;2023-05-10T10:03:18;21.33;;;20.42;;
7255;SDS011;3669;49.200;9.242;2023-05-10T10:05:46;23.15;;;21.95;;
7255;SDS011;3669;49.200;9.242;2023-05-10T10:08:13;24.20;;;23.02;;
7255;SDS011;3669;49.200;9.242;2023-05-10T10:10:42;10.23;;;9.70;;
7255;SDS011;3669;49.200;9.242;2023-05-10T10:13:12;2.55;;;2.15;;
7255;SDS011;3669;49.200;9.242;2023-05-10T10:15:39;2.00;;;1.90;;
7255;SDS011;3669;49.200;9.242;2023-05-10T10:18:06;1.83;;;1.52;;
7255;SDS011;3669;49.200;9.242;2023-05-10T10:20:34;4.22;;;3.28;;
7255;SDS011;3669;49.200;9.242;2023-05-10T10:23:03;2.67;;;1.60;;
7255;SDS011;3669;49.200;9.242;2023-05-10T10:25:31;2.05;;;1.95;;
7255;SDS011;3669;49.200;9.242;2023-05-10T10:28:06;1.73;;;1.63;;
7255;SDS011;3669;49.200;9.242;2023-05-10T10:33:19;1.85;;;1.75;;
7255;SDS011;3669;49.200;9.242;2023-05-10T10:35:58;2.50;;;1.73;;
7255;SDS011;3669;49.200;9.242;2023-05-10T10:38:25;2.42;;;1.77;;
7255;SDS011;3669;49.200;9.242;2023-05-10T10:41:10;1.85;;;1.67;;
7255;SDS011;3669;49.200;9.242;2023-05-10T10:43:48;1.80;;;1.70;;
7255;SDS011;3669;49.200;9.242;2023-05-10T10:46:16;2.70;;;2.00;;
7255;SDS011;3669;49.200;9.242;2023-05-10T10:48:48;2.10;;;1.83;;
7255;SDS011;3669;49.200;9.242;2023-05-10T10:51:15;2.30;;;1.73;;
7255;SDS011;3669;49.200;9.242;2023-05-10T10:53:42;2.22;;;1.80;;
7255;SDS011;3669;49.200;9.242;2023-05-10T10:56:10;4.90;;;2.42;;
7255;SDS011;3669;49.200;9.242;2023-05-10T10:58:39;2.10;;;1.90;;
7255;SDS011;3669;49.200;9.242;2023-05-10T11:01:13;2.90;;;1.75;;
7255;SDS011;3669;49.200;9.242;2023-05-10T11:03:41;52.90;;;7.15;;
7255;SDS011;3669;49.200;9.242;2023-05-10T11:06:34;540.63;;;50.28;;
7255;SDS011;3669;49.200;9.242;2023-05-10T11:09:06;17.17;;;3.47;;
7255;SDS011;3669;49.200;9.242;2023-05-10T11:11:34;1.80;;;1.60;;
7255;SDS011;3669;49.200;9.242;2023-05-10T11:14:06;2.35;;;1.63;;
7255;SDS011;3669;49.200;9.242;2023-05-10T11:16:43;23.40;;;22.17;;
7255;SDS011;3669;49.200;9.242;2023-05-10T11:19:11;31.40;;;29.52;;
7255;SDS011;3669;49.200;9.242;2023-05-10T11:24:31;37.85;;;35.10;;
7255;SDS011;3669;49.200;9.242;2023-05-10T11:26:59;33.20;;;31.13;;
7255;SDS011;3669;49.200;9.242;2023-05-10T11:29:26;30.60;;;28.73;;
7255;SDS011;3669;49.200;9.242;2023-05-10T11:31:53;29.40;;;27.60;;
7255;SDS011;3669;49.200;9.242;2023-05-10T11:34:28;20.05;;;18.70;;
7255;SDS011;3669;49.200;9.242;2023-05-10T11:37:00;9.32;;;7.90;;
7255;SDS011;3669;49.200;9.242;2023-05-10T11:39:28;7.35;;;6.65;;
7255;SDS011;3669;49.200;9.242;2023-05-10T11:41:55;14.10;;;13.07;;
7255;SDS011;3669;49.200;9.242;2023-05-10T11:44:23;5.57;;;5.00;;
7255;SDS011;3669;49.200;9.242;2023-05-10T11:46:50;5.57;;;5.07;;
7255;SDS011;3669;49.200;9.242;2023-05-10T11:49:18;4.75;;;4.22;;
7255;SDS011;3669;49.200;9.242;2023-05-10T11:51:45;4.40;;;4.00;;
7255;SDS011;3669;49.200;9.242;2023-05-10T11:54:12;4.20;;;3.80;;
7255;SDS011;3669;49.200;9.242;2023-05-10T11:56:40;3.85;;;3.55;;
7255;SDS011;3669;49.200;9.242;2023-05-10T11:59:07;3.90;;;3.60;;
7255;SDS011;3669;49.200;9.242;2023-05-10T12:01:34;3.22;;;3.00;;
7255;SDS011;3669;49.200;9.242;2023-05-10T12:04:01;3.30;;;3.10;;
7255;SDS011;3669;49.200;9.242;2023-05-10T12:06:34;3.80;;;2.90;;
7255;SDS011;3669;49.200;9.242;2023-05-10T12:09:07;3.17;;;2.97;;
7255;SDS011;3669;49.200;9.242;2023-05-10T12:11:39;2.70;;;2.50;;
7255;SDS011;3669;49.200;9.242;2023-05-10T12:14:07;3.13;;;2.63;;
7255;SDS011;3669;49.200;9.242;2023-05-10T12:16:35;2.78;;;2.58;;
7255;SDS011;3669;49.200;9.242;2023-05-10T12:19:02;2.60;;;2.40;;
7255;SDS011;3669;49.200;9.242;2023-05-10T12:21:29;2.70;;;2.50;;
7255;SDS011;3669;49.200;9.242;2023-05-10T12:24:03;2.53;;;2.33;;
7255;SDS011;3669;49.200;9.242;2023-05-10T12:26:31;2.17;;;2.00;;
7255;SDS011;3669;49.200;9.242;2023-05-10T12:31:54;2.28;;;2.08;;
7255;SDS011;3669;49.200;9.242;2023-05-10T12:34:26;2.40;;;2.20;;
7255;SDS011;3669;49.200;9.242;2023-05-10T12:36:54;2.70;;;1.90;;
7255;SDS011;3669;49.200;9.242;2023-05-10T12:39:21;2.45;;;2.13;;
7255;SDS011;3669;49.200;9.242;2023-05-10T12:41:48;2.38;;;2.13;;
7255;SDS011;3669;49.200;9.242;2023-05-10T12:44:15;2.28;;;2.08;;
7255;SDS011;3669;49.200;9.242;2023-05-10T12:46:43;2.33;;;2.13;;
7255;SDS011;3669;49.200;9.242;2023-05-10T12:49:09;2.10;;;1.90;;
7255;SDS011;3669;49.200;9.242;2023-05-10T12:51:36;17.17;;;16.15;;
7255;SDS011;3669;49.200;9.242;2023-05-10T12:54:03;19.85;;;18.90;;
7255;SDS011;3669;49.200;9.242;2023-05-10T12:56:30;24.33;;;23.15;;
7255;SDS011;3669;49.200;9.242;2023-05-10T12:58:57;20.77;;;19.70;;
7255;SDS011;3669;49.200;9.242;2023-05-10T13:01:24;13.32;;;12.70;;
7255;SDS011;3669;49.200;9.242;2023-05-10T13:03:51;4.68;;;4.43;;
7255;SDS011;3669;49.200;9.242;2023-05-10T13:06:17;2.10;;;1.95;;
7255;SDS011;3669;49.200;9.242;2023-05-10T13:08:45;2.13;;;1.83;;
7255;SDS011;3669;49.200;9.242;2023-05-10T13:11:12;2.67;;;2.10;;
7255;SDS011;3669;49.200;9.242;2023-05-10T13:13:42;3.00;;;1.90;;
7255;SDS011;3669;49.200;9.242;2023-05-10T13:16:09;1.80;;;1.70;;
7255;SDS011;3669;49.200;9.242;2023-05-10T13:18:37;2.92;;;1.83;;
7255;SDS011;3669;49.200;9.242;2023-05-10T13:21:04;2.22;;;2.03;;
7255;SDS011;3669;49.200;9.242;2023-05-10T13:23:31;2.95;;;2.22;;
7255;SDS011;3669;49.200;9.242;2023-05-10T13:25:58;2.30;;;1.80;;
7255;SDS011;3669;49.200;9.242;2023-05-10T13:28:25;2.00;;;1.90;;
7255;SDS011;3669;49.200;9.242;2023-05-10T13:30:52;2.00;;;1.90;;
7255;SDS011;3669;49.200;9.242;2023-05-10T13:33:19;2.42;;;1.88;;
7255;SDS011;3669;49.200;9.242;2023-05-10T13:35:47;3.65;;;2.00;;
7255;SDS011;3669;49.200;9.242;2023-05-10T13:38:14;1.70;;;1.60;;
7255;SDS011;3669;49.200;9.242;2023-05-10T13:40:42;2.00;;;1.80;;
7255;SDS011;3669;49.200;9.242;2023-05-10T13:43:09;2.45;;;1.60;;
7255;SDS011;3669;49.200;9.242;2023-05-10T13:45:36;2.28;;;1.98;;
7255;SDS011;3669;49.200;9.242;2023-05-10T13:48:04;3.45;;;1.80;;
7255;SDS011;3669;49.200;9.242;2023-05-10T13:50:31;3.88;;;1.90;;
7255;SDS011;3669;49.200;9.242;2023-05-10T13:52:58;2.75;;;1.80;;
7255;SDS011;3669;49.200;9.242;2023-05-10T13:55:25;2.20;;;2.00;;
7255;SDS011;3669;49.200;9.242;2023-05-10T13:57:55;2.55;;;1.80;;
7255;SDS011;3669;49.200;9.242;2023-05-10T14:00:23;1.90;;;1.80;;
7255;SDS011;3669;49.200;9.242;2023-05-10T14:02:50;2.35;;;1.80;;
7255;SDS011;3669;49.200;9.242;2023-05-10T14:05:18;1.80;;;1.70;;
7255;SDS011;3669;49.200;9.242;2023-05-10T14:07:46;2.92;;;1.75;;
7255;SDS011;3669;49.200;9.242;2023-05-10T14:10:13;1.80;;;1.70;;
7255;SDS011;3669;49.200;9.242;2023-05-10T14:12:41;1.60;;;1.50;;
7255;SDS011;3669;49.200;9.242;2023-05-10T14:15:08;1.75;;;1.63;;
7255;SDS011;3669;49.200;9.242;2023-05-10T14:17:37;13.18;;;12.38;;
7255;SDS011;3669;49.200;9.242;2023-05-10T14:20:04;2.10;;;1.90;;
7255;SDS011;3669;49.200;9.242;2023-05-10T14:22:31;1.58;;;1.48;;
7255;SDS011;3669;49.200;9.242;2023-05-10T14:24:58;2.85;;;2.65;;
7255;SDS011;3669;49.200;9.242;2023-05-10T14:27:25;21.60;;;20.40;;
7255;SDS011;3669;49.200;9.242;2023-05-10T14:29:52;21.05;;;19.98;;
7255;SDS011;3669;49.200;9.242;2023-05-10T14:32:19;23.38;;;22.27;;
7255;SDS011;3669;49.200;9.242;2023-05-10T14:34:46;24.55;;;23.30;;
7255;SDS011;3669;49.200;9.242;2023-05-10T14:37:13;9.80;;;9.27;;
7255;SDS011;3669;49.200;9.242;2023-05-10T14:39:41;1.52;;;1.42;;
7255;SDS011;3669;49.200;9.242;2023-05-10T14:42:08;11.68;;;11.02;;
7255;SDS011;3669;49.200;9.242;2023-05-10T14:44:35;1.60;;;1.50;;
7255;SDS011;3669;49.200;9.242;2023-05-10T14:47:03;1.60;;;1.50;;
7255;SDS011;3669;49.200;9.242;2023-05-10T14:49:30;1.70;;;1.58;;
7255;SDS011;3669;49.200;9.242;2023-05-10T14:51:57;2.40;;;1.55;;
7255;SDS011;3669;49.200;9.242;2023-05-10T14:54:24;2.83;;;1.83;;
7255;SDS011;3669;49.200;9.242;2023-05-10T14:56:52;1.90;;;1.52;;
7255;SDS011;3669;49.200;9.242;2023-05-10T14:59:20;1.60;;;1.50;;
7255;SDS011;3669;49.200;9.242;2023-05-10T15:01:47;1.80;;;1.70;;
7255;SDS011;3669;49.200;9.242;2023-05-10T15:04:14;2.05;;;1.60;;
7255;SDS011;3669;49.200;9.242;2023-05-10T15:06:42;1.90;;;1.65;;
7255;SDS011;3669;49.200;9.242;2023-05-10T15:09:10;1.60;;;1.50;;
7255;SDS011;3669;49.200;9.242;2023-05-10T15:11:37;1.80;;;1.60;;
7255;SDS011;3669;49.200;9.242;2023-05-10T15:14:04;2.33;;;1.65;;
7255;SDS011;3669;49.200;9.242;2023-05-10T15:16:31;1.70;;;1.60;;
7255;SDS011;3669;49.200;9.242;2023-05-10T15:18:59;1.65;;;1.55;;
7255;SDS011;3669;49.200;9.242;2023-05-10T15:21:27;1.70;;;1.60;;
7255;SDS011;3669;49.200;9.242;2023-05-10T15:23:54;1.85;;;1.65;;
7255;SDS011;3669;49.200;9.242;2023-05-10T15:26:22;1.90;;;1.70;;
7255;SDS011;3669;49.200;9.242;2023-05-10T15:28:49;1.88;;;1.50;;
7255;SDS011;3669;49.200;9.242;2023-05-10T15:31:17;1.95;;;1.70;;
7255;SDS011;3669;49.200;9.242;2023-05-10T15:33:44;2.10;;;1.70;;
7255;SDS011;3669;49.200;9.242;2023-05-10T15:36:11;2.03;;;1.90;;
7255;SDS011;3669;49.200;9.242;2023-05-10T15:38:38;2.10;;;1.80;;